createdAt,value
2023-03-18T00:01:17.004Z,58.19
2023-03-18T00:03:50.361Z,57.85
2023-03-18T00:06:23.448Z,58.58
2023-03-18T00:08:53.666Z,58.34
2023-03-18T00:11:27.397Z,58.61
2023-03-18T00:13:59.099Z,58.33
2023-03-18T00:16:31.313Z,58.31
2023-03-18T00:19:04.139Z,58.39
2023-03-18T00:21:36.254Z,58.30
2023-03-18T00:24:08.394Z,58.08
2023-03-18T00:26:40.353Z,58.01
2023-03-18T00:29:12.366Z,58.26
2023-03-18T00:31:44.949Z,58.28
2023-03-18T00:34:16.051Z,58.42
2023-03-18T00:36:50.728Z,58.20
2023-03-18T00:39:26.440Z,58.44
2023-03-18T00:42:02.131Z,58.06
2023-03-18T00:44:34.289Z,57.93
2023-03-18T00:47:06.493Z,58.09
2023-03-18T00:49:39.441Z,58.27
2023-03-18T00:52:11.311Z,58.39
2023-03-18T00:54:43.080Z,58.42
2023-03-18T00:57:15.607Z,58.64
2023-03-18T00:59:48.357Z,58.68
2023-03-18T01:02:20.651Z,58.84
2023-03-18T01:04:53.320Z,58.49
2023-03-18T01:07:24.250Z,58.27
2023-03-18T01:09:56.050Z,58.07
2023-03-18T01:12:29.271Z,57.99
2023-03-18T01:15:01.429Z,58.36
2023-03-18T01:17:33.403Z,58.31
2023-03-18T01:20:06.242Z,58.23
2023-03-18T01:22:39.228Z,58.39
2023-03-18T01:25:13.547Z,58.67
2023-03-18T01:27:45.951Z,58.68
2023-03-18T01:30:19.820Z,58.82
2023-03-18T01:32:51.924Z,59.40
2023-03-18T01:35:25.687Z,59.15
2023-03-18T01:37:58.043Z,59.13
2023-03-18T01:40:30.567Z,59.20
2023-03-18T01:43:21.887Z,59.02
2023-03-18T01:45:55.571Z,59.19
2023-03-18T01:48:29.876Z,59.17
2023-03-18T01:51:10.324Z,59.30
2023-03-18T01:53:45.890Z,58.95
2023-03-18T01:56:19.856Z,59.32
2023-03-18T01:58:54.969Z,59.65
2023-03-18T02:01:33.606Z,59.32
2023-03-18T02:04:10.355Z,59.26
2023-03-18T02:06:43.659Z,59.52
2023-03-18T02:09:16.175Z,60.16
2023-03-18T02:11:50.692Z,59.74
2023-03-18T02:14:26.726Z,59.39
2023-03-18T02:17:03.784Z,59.38
2023-03-18T02:19:51.701Z,59.27
2023-03-18T02:22:31.030Z,59.48
2023-03-18T02:25:14.235Z,59.68
2023-03-18T02:27:50.196Z,59.18
2023-03-18T02:30:27.278Z,59.38
2023-03-18T02:33:00.975Z,59.79
2023-03-18T02:35:34.934Z,59.45
2023-03-18T02:38:07.452Z,59.63
2023-03-18T02:40:41.720Z,59.88
2023-03-18T02:43:26.261Z,59.09
2023-03-18T02:46:30.782Z,59.42
2023-03-18T02:49:06.696Z,59.91
2023-03-18T02:51:39.582Z,60.02
2023-03-18T02:54:13.347Z,59.85
2023-03-18T02:56:45.988Z,60.01
2023-03-18T02:59:19.230Z,59.48
2023-03-18T03:01:54.246Z,59.45
2023-03-18T03:04:27.815Z,59.66
2023-03-18T03:07:01.459Z,59.85
2023-03-18T03:09:41.889Z,59.93
2023-03-18T03:12:14.561Z,59.62
2023-03-18T03:14:49.874Z,59.19
2023-03-18T03:17:22.709Z,59.47
2023-03-18T03:19:55.344Z,59.76
2023-03-18T03:22:27.358Z,59.91
2023-03-18T03:24:59.590Z,59.46
2023-03-18T03:27:31.963Z,59.41
2023-03-18T03:30:03.680Z,60.45
2023-03-18T03:32:35.412Z,59.78
2023-03-18T03:35:09.398Z,59.74
2023-03-18T03:37:42.177Z,59.62
2023-03-18T03:40:16.988Z,59.57
2023-03-18T03:42:50.161Z,59.64
2023-03-18T03:45:22.624Z,59.25
2023-03-18T03:47:53.782Z,59.21
2023-03-18T03:50:25.670Z,58.82
2023-03-18T03:52:58.263Z,59.31
2023-03-18T03:55:31.802Z,58.83
2023-03-18T03:58:03.761Z,59.33
2023-03-18T04:00:34.750Z,58.99
2023-03-18T04:03:06.758Z,59.15
2023-03-18T04:05:38.818Z,59.55
2023-03-18T04:08:11.035Z,59.66
2023-03-18T04:10:43.824Z,59.55
2023-03-18T04:13:15.705Z,59.58
2023-03-18T04:15:48.091Z,60.07
2023-03-18T04:18:22.817Z,60.13
2023-03-18T04:20:55.167Z,59.78
2023-03-18T04:23:40.937Z,60.18
2023-03-18T04:26:13.057Z,60.29
2023-03-18T04:28:45.265Z,59.78
2023-03-18T04:31:19.291Z,60.09
2023-03-18T04:33:50.964Z,59.97
2023-03-18T04:36:23.990Z,59.67
2023-03-18T04:38:56.869Z,59.78
2023-03-18T04:41:29.366Z,59.35
2023-03-18T04:44:02.532Z,59.35
2023-03-18T04:46:42.207Z,59.26
2023-03-18T04:49:14.094Z,59.15
2023-03-18T04:51:46.499Z,59.17
2023-03-18T04:54:27.293Z,59.36
2023-03-18T04:56:59.513Z,59.40
2023-03-18T04:59:31.692Z,59.74
2023-03-18T05:02:06.598Z,59.60
2023-03-18T05:04:38.980Z,59.30
2023-03-18T05:07:13.489Z,59.34
2023-03-18T05:09:45.314Z,59.50
2023-03-18T05:12:18.264Z,59.36
2023-03-18T05:14:50.187Z,59.26
2023-03-18T05:17:22.017Z,59.21
2023-03-18T05:20:00.245Z,59.12
2023-03-18T05:22:32.943Z,59.24
2023-03-18T05:25:12.708Z,59.23
2023-03-18T05:27:45.901Z,59.43
2023-03-18T05:30:23.882Z,59.04
2023-03-18T05:32:58.583Z,59.33
2023-03-18T05:35:47.224Z,59.50
2023-03-18T05:38:19.801Z,59.27
2023-03-18T05:40:51.719Z,59.29
2023-03-18T05:43:28.363Z,59.40
2023-03-18T05:46:01.945Z,59.19
2023-03-18T05:48:43.568Z,59.21
2023-03-18T05:51:16.208Z,59.22
2023-03-18T05:53:47.921Z,59.36
2023-03-18T05:56:25.967Z,59.29
2023-03-18T05:59:01.549Z,59.39
2023-03-18T06:01:41.211Z,59.19
2023-03-18T06:04:13.718Z,59.14
2023-03-18T06:06:44.610Z,59.11
2023-03-18T06:09:17.444Z,59.12
2023-03-18T06:11:50.644Z,58.75
2023-03-18T06:14:22.554Z,58.82
2023-03-18T06:16:55.631Z,58.29
2023-03-18T06:19:28.534Z,58.11
2023-03-18T06:21:58.998Z,57.93
2023-03-18T06:24:30.698Z,57.79
2023-03-18T06:27:04.799Z,57.79
2023-03-18T06:29:37.834Z,57.67
2023-03-18T06:32:14.272Z,57.69
2023-03-18T06:34:46.131Z,57.68
2023-03-18T06:37:17.931Z,57.82
2023-03-18T06:39:50.494Z,57.71
2023-03-18T06:42:22.907Z,57.38
2023-03-18T06:45:01.484Z,57.48
2023-03-18T06:47:46.473Z,57.41
2023-03-18T06:50:18.719Z,57.51
2023-03-18T06:52:50.553Z,57.58
2023-03-18T06:55:25.760Z,57.24
2023-03-18T06:57:58.010Z,57.29
2023-03-18T07:00:35.986Z,57.30
2023-03-18T07:03:09.043Z,57.85
2023-03-18T07:05:42.187Z,57.63
2023-03-18T07:08:15.634Z,57.56
2023-03-18T07:10:47.481Z,57.61
2023-03-18T07:13:19.095Z,57.78
2023-03-18T07:15:50.945Z,57.45
2023-03-18T07:18:23.879Z,57.15
2023-03-18T07:20:55.699Z,57.08
2023-03-18T07:23:27.932Z,57.01
2023-03-18T07:26:02.290Z,56.74
2023-03-18T07:28:34.213Z,56.40
2023-03-18T07:31:06.260Z,56.69
2023-03-18T07:33:38.613Z,56.56
2023-03-18T07:36:11.060Z,56.60
2023-03-18T07:38:43.058Z,56.56
2023-03-18T07:41:15.191Z,56.02
2023-03-18T07:43:48.613Z,56.34
2023-03-18T07:46:20.957Z,55.97
2023-03-18T07:48:52.942Z,55.76
2023-03-18T07:51:25.170Z,55.67
2023-03-18T07:53:57.401Z,55.42
2023-03-18T07:56:29.409Z,55.09
2023-03-18T07:59:01.534Z,55.03
2023-03-18T08:01:33.688Z,54.60
2023-03-18T08:04:06.010Z,54.44
2023-03-18T08:06:39.109Z,54.28
2023-03-18T08:09:11.008Z,53.63
2023-03-18T08:11:43.276Z,53.62
2023-03-18T08:14:15.248Z,53.24
2023-03-18T08:16:47.834Z,52.99
2023-03-18T08:19:19.835Z,53.08
2023-03-18T08:21:51.555Z,52.52
2023-03-18T08:24:24.494Z,51.73
2023-03-18T08:26:56.657Z,51.16
2023-03-18T08:29:28.457Z,50.67
2023-03-18T08:32:00.257Z,50.62
2023-03-18T08:34:32.438Z,50.29
2023-03-18T08:37:05.050Z,50.51
2023-03-18T08:39:36.896Z,50.24
2023-03-18T08:42:10.339Z,49.68
2023-03-18T08:44:43.437Z,49.82
2023-03-18T08:47:15.673Z,49.66
2023-03-18T08:49:49.214Z,49.29
2023-03-18T08:52:22.749Z,49.12
2023-03-18T08:54:54.500Z,48.74
2023-03-18T08:57:27.838Z,48.60
2023-03-18T08:59:59.944Z,48.62
2023-03-18T09:02:31.926Z,48.51
2023-03-18T09:05:03.858Z,48.59
2023-03-18T09:07:36.229Z,48.44
2023-03-18T09:10:10.217Z,47.99
2023-03-18T09:12:42.176Z,48.26
2023-03-18T09:15:15.991Z,48.10
2023-03-18T09:18:03.701Z,47.96
2023-03-18T09:20:40.465Z,48.08
2023-03-18T09:23:14.055Z,48.62
2023-03-18T09:25:46.975Z,47.60
2023-03-18T09:28:19.333Z,47.51
2023-03-18T09:30:51.293Z,46.72
2023-03-18T09:33:23.245Z,46.54
2023-03-18T09:35:55.422Z,47.00
2023-03-18T09:38:27.791Z,47.17
2023-03-18T09:41:08.009Z,46.61
2023-03-18T09:43:51.599Z,46.59
2023-03-18T09:46:32.942Z,46.06
2023-03-18T09:49:35.206Z,46.78
2023-03-18T09:52:19.410Z,46.71
2023-03-18T09:54:58.773Z,46.33
2023-03-18T09:57:34.595Z,45.84
2023-03-18T10:00:17.440Z,45.98
2023-03-18T10:02:54.190Z,45.75
2023-03-18T10:05:32.761Z,44.91
2023-03-18T10:08:09.085Z,44.98
2023-03-18T10:10:46.812Z,45.02
2023-03-18T10:13:23.582Z,44.76
2023-03-18T10:15:58.672Z,44.49
2023-03-18T10:18:34.800Z,44.37
2023-03-18T10:21:21.877Z,44.48
2023-03-18T10:24:03.643Z,44.48
2023-03-18T10:26:43.580Z,44.36
2023-03-18T10:29:33.366Z,44.73
2023-03-18T10:32:21.150Z,44.33
2023-03-18T10:35:03.958Z,44.44
2023-03-18T10:37:50.104Z,44.05
2023-03-18T10:40:25.595Z,43.79
2023-03-18T10:42:58.190Z,44.28
2023-03-18T10:45:33.077Z,44.64
2023-03-18T10:48:12.645Z,44.63
2023-03-18T10:50:50.163Z,44.02
2023-03-18T10:53:27.094Z,44.70
2023-03-18T10:56:06.943Z,45.07
2023-03-18T10:58:40.661Z,44.41
2023-03-18T11:01:19.092Z,43.87
2023-03-18T11:03:56.096Z,43.62
2023-03-18T11:06:36.815Z,43.90
2023-03-18T11:09:12.510Z,44.10
2023-03-18T11:11:45.976Z,44.07
2023-03-18T11:14:20.960Z,43.70
2023-03-18T11:17:00.335Z,44.04
2023-03-18T11:19:39.176Z,43.80
2023-03-18T11:22:22.511Z,44.07
2023-03-18T11:25:17.095Z,44.09
2023-03-18T11:27:51.288Z,43.83
2023-03-18T11:30:35.034Z,43.30
2023-03-18T11:33:15.407Z,42.62
2023-03-18T11:35:53.187Z,42.36
2023-03-18T11:38:29.305Z,42.23
2023-03-18T11:41:13.496Z,42.09
2023-03-18T11:43:59.264Z,42.87
2023-03-18T11:46:37.547Z,42.70
2023-03-18T11:49:14.112Z,42.19
2023-03-18T11:51:53.294Z,46.13
2023-03-18T11:54:45.226Z,42.29
2023-03-18T11:57:25.592Z,41.42
2023-03-18T12:00:07.440Z,40.90
2023-03-18T12:02:59.076Z,40.25
2023-03-18T12:05:51.976Z,40.19
2023-03-18T12:08:33.053Z,39.76
2023-03-18T12:11:12.897Z,39.59
2023-03-18T12:13:58.894Z,39.65
2023-03-18T12:16:50.593Z,39.80
2023-03-18T12:19:40.861Z,40.34
2023-03-18T12:22:40.941Z,40.55
2023-03-18T12:25:32.829Z,39.45
2023-03-18T12:28:17.030Z,39.39
2023-03-18T12:31:07.929Z,39.42
2023-03-18T12:33:53.355Z,39.15
2023-03-18T12:36:45.055Z,38.95
2023-03-18T12:39:53.762Z,38.57
2023-03-18T12:42:38.988Z,39.18
2023-03-18T12:45:17.015Z,39.51
2023-03-18T12:47:54.224Z,39.48
2023-03-18T12:50:33.707Z,39.83
2023-03-18T12:53:14.837Z,40.31
2023-03-18T12:55:54.025Z,40.55
2023-03-18T12:58:30.004Z,40.27
2023-03-18T13:01:07.285Z,39.53
2023-03-18T13:03:41.062Z,39.57
2023-03-18T13:06:18.740Z,39.28
2023-03-18T13:09:02.369Z,39.14
2023-03-18T13:11:46.640Z,38.90
2023-03-18T13:14:26.280Z,39.74
2023-03-18T13:16:59.746Z,39.93
2023-03-18T13:19:32.385Z,40.03
2023-03-18T13:22:18.417Z,39.72
2023-03-18T13:25:02.839Z,40.01
2023-03-18T13:27:46.290Z,39.57
2023-03-18T13:30:28.323Z,51.24
2023-03-18T13:33:17.656Z,58.50
2023-03-18T13:36:10.388Z,52.94
2023-03-18T13:38:55.595Z,53.90
2023-03-18T13:42:04.542Z,50.37
2023-03-18T13:44:43.348Z,47.38
2023-03-18T13:47:19.665Z,48.24
2023-03-18T13:50:01.557Z,46.30
2023-03-18T13:52:42.002Z,46.37
2023-03-18T13:55:27.582Z,45.40
2023-03-18T13:58:10.507Z,39.20
2023-03-18T14:00:41.946Z,38.10
2023-03-18T14:03:23.223Z,38.56
2023-03-18T14:06:22.892Z,38.40
2023-03-18T14:08:55.507Z,38.81
2023-03-18T14:11:52.979Z,39.02
2023-03-18T14:15:09.395Z,38.40
2023-03-18T14:17:55.738Z,38.33
2023-03-18T14:20:40.636Z,38.62
2023-03-18T14:23:39.295Z,39.06
2023-03-18T14:26:21.890Z,39.38
2023-03-18T14:29:03.554Z,39.24
2023-03-18T14:32:01.026Z,39.61
2023-03-18T14:34:35.872Z,39.70
2023-03-18T14:37:30.361Z,39.76
2023-03-18T14:40:15.805Z,39.88
2023-03-18T14:42:56.794Z,40.15
2023-03-18T14:45:33.438Z,40.06
2023-03-18T14:48:13.540Z,39.77
2023-03-18T14:50:50.549Z,39.97
2023-03-18T14:53:30.056Z,39.99
2023-03-18T14:56:04.319Z,40.03
2023-03-18T14:58:50.549Z,40.04
2023-03-18T15:01:30.242Z,40.07
2023-03-18T15:04:03.810Z,40.16
2023-03-18T15:06:36.640Z,40.40
2023-03-18T15:09:15.520Z,40.21
2023-03-18T15:11:49.046Z,40.57
2023-03-18T15:14:26.958Z,40.57
2023-03-18T15:17:00.943Z,40.82
2023-03-18T15:19:33.648Z,40.85
2023-03-18T15:22:08.633Z,40.96
2023-03-18T15:24:40.770Z,41.26
2023-03-18T15:27:19.512Z,41.44
2023-03-18T15:29:54.622Z,41.53
2023-03-18T15:32:29.533Z,41.75
2023-03-18T15:35:16.623Z,42.05
2023-03-18T15:38:03.220Z,41.56
2023-03-18T15:40:36.668Z,41.72
2023-03-18T15:43:29.830Z,42.04
2023-03-18T15:46:01.057Z,41.93
2023-03-18T15:48:37.879Z,42.28
2023-03-18T15:51:28.177Z,42.21
2023-03-18T15:54:04.985Z,42.28
2023-03-18T15:56:44.084Z,42.56
2023-03-18T15:59:19.929Z,42.47
2023-03-18T16:01:52.643Z,42.75
2023-03-18T16:04:26.005Z,42.80
2023-03-18T16:06:59.449Z,42.91
2023-03-18T16:09:34.690Z,43.22
2023-03-18T16:12:14.402Z,43.36
2023-03-18T16:14:47.627Z,43.89
2023-03-18T16:17:22.207Z,43.72
2023-03-18T16:19:56.970Z,43.72
2023-03-18T16:22:30.835Z,44.04
2023-03-18T16:25:04.601Z,44.19
2023-03-18T16:27:40.172Z,44.24
2023-03-18T16:30:22.722Z,44.46
2023-03-18T16:32:56.625Z,44.65
2023-03-18T16:35:33.787Z,44.88
2023-03-18T16:38:06.414Z,44.91
2023-03-18T16:40:38.415Z,45.03
2023-03-18T16:43:16.209Z,45.60
2023-03-18T16:45:49.380Z,45.97
2023-03-18T16:48:23.780Z,46.12
2023-03-18T16:50:57.442Z,46.16
2023-03-18T16:53:31.901Z,46.05
2023-03-18T16:56:16.076Z,46.12
2023-03-18T16:58:48.216Z,46.15
2023-03-18T17:01:21.506Z,46.29
2023-03-18T17:03:54.009Z,46.80
2023-03-18T17:06:24.803Z,47.09
2023-03-18T17:08:57.041Z,47.51
2023-03-18T17:11:29.185Z,47.82
2023-03-18T17:14:00.805Z,48.05
2023-03-18T17:16:32.860Z,48.02
2023-03-18T17:19:05.372Z,48.13
2023-03-18T17:21:38.031Z,48.44
2023-03-18T17:24:10.746Z,48.63
2023-03-18T17:26:43.334Z,48.77
2023-03-18T17:29:24.443Z,48.72
2023-03-18T17:31:56.970Z,49.05
2023-03-18T17:34:29.244Z,48.96
2023-03-18T17:37:01.083Z,49.13
2023-03-18T17:39:32.951Z,49.25
2023-03-18T17:42:05.992Z,49.38
2023-03-18T17:44:38.462Z,49.51
2023-03-18T17:47:11.395Z,49.47
2023-03-18T17:49:43.672Z,49.50
2023-03-18T17:52:20.786Z,50.27
2023-03-18T17:54:52.607Z,50.10
2023-03-18T17:57:24.386Z,49.66
2023-03-18T17:59:57.722Z,49.71
2023-03-18T18:02:29.907Z,49.86
2023-03-18T18:05:01.768Z,49.84
2023-03-18T18:07:33.915Z,49.07
2023-03-18T18:10:06.915Z,49.11
2023-03-18T18:12:47.226Z,49.72
2023-03-18T18:15:27.796Z,49.41
2023-03-18T18:18:01.300Z,48.70
2023-03-18T18:20:34.156Z,48.57
2023-03-18T18:23:07.382Z,48.43
2023-03-18T18:25:39.389Z,48.46
2023-03-18T18:28:21.132Z,48.69
2023-03-18T18:30:52.990Z,49.26
2023-03-18T18:33:25.193Z,49.17
2023-03-18T18:35:57.749Z,49.54
2023-03-18T18:38:30.785Z,49.81
2023-03-18T18:41:03.511Z,49.73
2023-03-18T18:43:36.484Z,50.00
2023-03-18T18:46:14.665Z,50.08
2023-03-18T18:48:50.488Z,50.89
2023-03-18T18:51:25.316Z,51.01
2023-03-18T18:53:57.426Z,51.14
2023-03-18T18:56:34.083Z,51.49
2023-03-18T18:59:18.628Z,51.25
2023-03-18T19:01:50.649Z,51.28
2023-03-18T19:04:23.602Z,51.21
2023-03-18T19:06:56.176Z,51.62
2023-03-18T19:09:28.733Z,51.65
2023-03-18T19:12:00.553Z,51.83
2023-03-18T19:14:32.811Z,52.04
2023-03-18T19:17:05.328Z,51.95
2023-03-18T19:19:35.828Z,58.35
2023-03-18T19:22:07.963Z,53.73
2023-03-18T19:24:40.934Z,53.15
2023-03-18T19:27:21.768Z,53.42
2023-03-18T19:29:55.602Z,52.93
2023-03-18T19:32:28.512Z,52.94
2023-03-18T19:35:00.562Z,52.61
2023-03-18T19:37:33.420Z,53.03
2023-03-18T19:40:24.296Z,53.08
2023-03-18T19:42:56.451Z,53.61
2023-03-18T19:45:28.595Z,53.82
2023-03-18T19:48:01.118Z,54.16
2023-03-18T19:50:33.112Z,54.26
2023-03-18T19:53:13.052Z,54.02
2023-03-18T19:55:46.087Z,53.85
2023-03-18T19:58:24.488Z,53.66
2023-03-18T20:00:56.465Z,53.67
2023-03-18T20:03:28.834Z,53.32
2023-03-18T20:06:01.665Z,52.96
2023-03-18T20:08:31.996Z,53.39
2023-03-18T20:11:04.121Z,53.61
2023-03-18T20:13:35.962Z,53.58
2023-03-18T20:16:12.234Z,53.71
2023-03-18T20:18:44.865Z,53.97
2023-03-18T20:21:20.378Z,53.85
2023-03-18T20:23:53.972Z,53.98
2023-03-18T20:26:25.858Z,54.13
2023-03-18T20:28:58.649Z,54.10
2023-03-18T20:31:30.829Z,54.61
2023-03-18T20:34:02.849Z,54.98
2023-03-18T20:36:35.152Z,55.04
2023-03-18T20:39:07.288Z,55.12
2023-03-18T20:41:39.815Z,54.80
2023-03-18T20:44:14.791Z,55.08
2023-03-18T20:46:46.698Z,54.90
2023-03-18T20:49:19.700Z,55.31
2023-03-18T20:51:51.638Z,55.48
2023-03-18T20:54:28.951Z,55.84
2023-03-18T20:57:01.027Z,55.45
2023-03-18T20:59:32.891Z,55.63
2023-03-18T21:02:04.752Z,55.87
2023-03-18T21:04:37.162Z,56.03
2023-03-18T21:07:14.150Z,55.98
2023-03-18T21:09:46.405Z,56.18
2023-03-18T21:12:20.970Z,56.31
2023-03-18T21:14:52.974Z,56.74
2023-03-18T21:17:27.345Z,56.42
2023-03-18T21:20:15.340Z,56.72
2023-03-18T21:22:52.735Z,56.55
2023-03-18T21:25:26.890Z,57.24
2023-03-18T21:27:58.916Z,57.44
2023-03-18T21:30:31.474Z,57.57
2023-03-18T21:33:04.159Z,57.93
2023-03-18T21:35:35.181Z,57.31
2023-03-18T21:38:08.495Z,57.36
2023-03-18T21:40:40.814Z,57.43
2023-03-18T21:43:30.232Z,57.62
2023-03-18T21:46:03.441Z,57.64
2023-03-18T21:48:35.361Z,57.52
2023-03-18T21:51:08.630Z,57.12
2023-03-18T21:53:40.746Z,58.83
2023-03-18T21:56:13.413Z,59.59
2023-03-18T21:58:45.277Z,60.58
2023-03-18T22:01:20.906Z,59.49
2023-03-18T22:03:53.921Z,60.40
2023-03-18T22:06:25.841Z,61.26
2023-03-18T22:08:57.921Z,60.61
2023-03-18T22:11:30.036Z,61.59
2023-03-18T22:14:01.911Z,61.95
2023-03-18T22:16:33.855Z,63.02
2023-03-18T22:19:05.691Z,63.66
2023-03-18T22:21:37.722Z,61.95
2023-03-18T22:24:14.725Z,62.55
2023-03-18T22:26:46.586Z,62.23
2023-03-18T22:29:18.853Z,62.80
2023-03-18T22:31:50.702Z,65.01
2023-03-18T22:34:25.479Z,64.37
2023-03-18T22:36:57.355Z,64.05
2023-03-18T22:39:29.241Z,64.35
2023-03-18T22:42:01.142Z,65.30
2023-03-18T22:44:33.016Z,64.41
2023-03-18T22:47:05.626Z,64.31
2023-03-18T22:49:37.415Z,64.09
2023-03-18T22:52:14.642Z,64.35
2023-03-18T22:54:47.023Z,64.84
2023-03-18T22:57:22.197Z,65.00
2023-03-18T22:59:54.606Z,64.94
2023-03-18T23:02:28.545Z,65.76
2023-03-18T23:05:00.502Z,66.19
2023-03-18T23:07:34.374Z,65.85
2023-03-18T23:10:07.330Z,66.06
2023-03-18T23:12:37.720Z,65.78
2023-03-18T23:15:14.624Z,64.95
2023-03-18T23:17:47.575Z,64.65
2023-03-18T23:20:20.587Z,64.92
2023-03-18T23:22:52.358Z,65.40
2023-03-18T23:25:24.603Z,66.10
2023-03-18T23:27:56.572Z,65.69
2023-03-18T23:30:28.659Z,65.89
2023-03-18T23:33:00.871Z,66.02
2023-03-18T23:35:33.304Z,65.62
2023-03-18T23:38:05.812Z,65.39
2023-03-18T23:40:38.025Z,64.87
2023-03-18T23:43:09.913Z,66.05
2023-03-18T23:45:42.010Z,66.71
2023-03-18T23:48:14.150Z,66.43
2023-03-18T23:50:46.543Z,65.46
2023-03-18T23:53:18.374Z,64.73
2023-03-18T23:55:52.283Z,64.10
2023-03-18T23:58:24.173Z,64.17
